sensor_id;sensor_type;location;lat;lon;timestamp;pressure;altitude;pressure_sealevel;temperature;humidity
72921;BME280;61064;51.654;5.476;2023-02-27T00:02:09;102926.56;;;0.57;67.73
72921;BME280;61064;51.654;5.476;2023-02-27T00:04:35;102906.53;;;0.36;67.63
72921;BME280;61064;51.654;5.476;2023-02-27T00:07:00;102960.44;;;0.66;67.71
72921;BME280;61064;51.654;5.476;2023-02-27T00:09:25;102890.19;;;0.28;68.01
72921;BME280;61064;51.654;5.476;2023-02-27T00:11:51;102907.56;;;0.38;67.74
72921;BME280;61064;51.654;5.476;2023-02-27T00:14:16;102944.66;;;0.54;67.79
72921;BME280;61064;51.654;5.476;2023-02-27T00:16:42;102950.91;;;0.56;68.12
72921;BME280;61064;51.654;5.476;2023-02-27T00:19:07;102951.06;;;0.58;67.87
72921;BME280;61064;51.654;5.476;2023-02-27T00:21:33;102968.41;;;0.67;67.79
72921;BME280;61064;51.654;5.476;2023-02-27T00:23:59;102901.84;;;0.32;67.88
72921;BME280;61064;51.654;5.476;2023-02-27T00:26:25;102904.59;;;0.33;68.05
72921;BME280;61064;51.654;5.476;2023-02-27T00:28:50;102912.44;;;0.33;67.91
72921;BME280;61064;51.654;5.476;2023-02-27T00:31:16;102899.78;;;0.28;67.71
72921;BME280;61064;51.654;5.476;2023-02-27T00:33:41;102957.34;;;0.60;68.08
72921;BME280;61064;51.654;5.476;2023-02-27T00:36:07;102904.63;;;0.23;67.97
72921;BME280;61064;51.654;5.476;2023-02-27T00:38:33;102903.69;;;0.23;67.93
72921;BME280;61064;51.654;5.476;2023-02-27T00:40:58;102929.22;;;0.25;68.22
72921;BME280;61064;51.654;5.476;2023-02-27T00:43:24;102933.91;;;0.29;68.12
72921;BME280;61064;51.654;5.476;2023-02-27T00:45:49;102956.63;;;0.40;68.33
72921;BME280;61064;51.654;5.476;2023-02-27T00:48:15;102951.09;;;0.26;68.71
72921;BME280;61064;51.654;5.476;2023-02-27T00:50:41;102941.81;;;0.19;68.57
72921;BME280;61064;51.654;5.476;2023-02-27T00:53:06;102949.78;;;0.21;68.59
72921;BME280;61064;51.654;5.476;2023-02-27T00:55:32;102958.03;;;0.25;68.68
72921;BME280;61064;51.654;5.476;2023-02-27T00:57:57;102902.38;;;-0.04;68.79
72921;BME280;61064;51.654;5.476;2023-02-27T01:00:23;102892.09;;;-0.13;68.69
72921;BME280;61064;51.654;5.476;2023-02-27T01:02:48;102956.19;;;0.24;68.68
72921;BME280;61064;51.654;5.476;2023-02-27T01:05:14;102952.16;;;0.18;68.77
72921;BME280;61064;51.654;5.476;2023-02-27T01:07:39;102894.44;;;-0.16;68.67
72921;BME280;61064;51.654;5.476;2023-02-27T01:10:06;102892.75;;;-0.15;68.80
72921;BME280;61064;51.654;5.476;2023-02-27T01:12:32;102892.75;;;-0.15;68.91
72921;BME280;61064;51.654;5.476;2023-02-27T01:14:58;102910.09;;;-0.06;68.98
72921;BME280;61064;51.654;5.476;2023-02-27T01:17:23;102913.53;;;-0.07;69.16
72921;BME280;61064;51.654;5.476;2023-02-27T01:19:50;102943.69;;;0.10;68.85
72921;BME280;61064;51.654;5.476;2023-02-27T01:22:16;102931.28;;;-0.03;69.15
72921;BME280;61064;51.654;5.476;2023-02-27T01:24:41;102904.53;;;-0.20;68.93
72921;BME280;61064;51.654;5.476;2023-02-27T01:27:07;102942.00;;;0.00;69.00
72921;BME280;61064;51.654;5.476;2023-02-27T01:29:32;102945.66;;;0.03;69.26
72921;BME280;61064;51.654;5.476;2023-02-27T01:31:58;102876.97;;;-0.37;69.13
72921;BME280;61064;51.654;5.476;2023-02-27T01:34:23;102923.34;;;-0.14;69.27
72921;BME280;61064;51.654;5.476;2023-02-27T01:36:49;102924.13;;;-0.15;69.27
72921;BME280;61064;51.654;5.476;2023-02-27T01:39:14;102883.28;;;-0.35;69.14
72921;BME280;61064;51.654;5.476;2023-02-27T01:41:40;102934.72;;;-0.14;69.45
72921;BME280;61064;51.654;5.476;2023-02-27T01:44:08;102952.63;;;-0.08;69.31
72921;BME280;61064;51.654;5.476;2023-02-27T01:46:34;102893.34;;;-0.39;69.45
72921;BME280;61064;51.654;5.476;2023-02-27T01:51:54;102887.84;;;-0.43;69.72
72921;BME280;61064;51.654;5.476;2023-02-27T01:54:23;102937.88;;;-0.18;69.70
72921;BME280;61064;51.654;5.476;2023-02-27T01:56:50;102905.75;;;-0.37;69.49
72921;BME280;61064;51.654;5.476;2023-02-27T01:59:17;102934.59;;;-0.15;69.45
72921;BME280;61064;51.654;5.476;2023-02-27T02:01:43;102919.72;;;-0.26;69.27
72921;BME280;61064;51.654;5.476;2023-02-27T02:04:27;102891.41;;;-0.52;69.83
72921;BME280;61064;51.654;5.476;2023-02-27T02:07:09;102863.69;;;-0.60;69.65
72921;BME280;61064;51.654;5.476;2023-02-27T02:09:41;102879.75;;;-0.56;69.82
72921;BME280;61064;51.654;5.476;2023-02-27T02:12:09;102873.53;;;-0.58;69.62
72921;BME280;61064;51.654;5.476;2023-02-27T02:14:35;102859.03;;;-0.64;69.78
72921;BME280;61064;51.654;5.476;2023-02-27T02:17:20;102902.91;;;-0.40;70.07
72921;BME280;61064;51.654;5.476;2023-02-27T02:20:06;102935.41;;;-0.26;69.95
72921;BME280;61064;51.654;5.476;2023-02-27T02:31:49;102932.66;;;-0.28;69.67
72921;BME280;61064;51.654;5.476;2023-02-27T02:37:34;102935.94;;;-0.30;69.86
72921;BME280;61064;51.654;5.476;2023-02-27T02:45:33;102938.19;;;-0.35;69.80
72921;BME280;61064;51.654;5.476;2023-02-27T02:55:52;102927.34;;;-0.50;70.02
72921;BME280;61064;51.654;5.476;2023-02-27T02:59:15;102939.09;;;-0.45;70.21
72921;BME280;61064;51.654;5.476;2023-02-27T03:01:50;102889.09;;;-0.79;70.22
72921;BME280;61064;51.654;5.476;2023-02-27T03:04:32;102879.03;;;-0.85;70.31
72921;BME280;61064;51.654;5.476;2023-02-27T03:07:13;102888.81;;;-0.82;70.34
72921;BME280;61064;51.654;5.476;2023-02-27T03:09:52;102937.41;;;-0.54;70.25
72921;BME280;61064;51.654;5.476;2023-02-27T03:12:21;102893.66;;;-0.87;70.20
72921;BME280;61064;51.654;5.476;2023-02-27T03:14:56;102885.69;;;-0.89;70.29
72921;BME280;61064;51.654;5.476;2023-02-27T03:17:30;102943.19;;;-0.58;70.36
72921;BME280;61064;51.654;5.476;2023-02-27T03:20:02;102902.41;;;-0.87;70.62
72921;BME280;61064;51.654;5.476;2023-02-27T03:22:33;102932.47;;;-0.71;70.31
72921;BME280;61064;51.654;5.476;2023-02-27T03:25:01;102934.97;;;-0.73;70.53
72921;BME280;61064;51.654;5.476;2023-02-27T03:27:32;102904.25;;;-0.96;70.39
72921;BME280;61064;51.654;5.476;2023-02-27T03:30:28;102968.94;;;-0.63;70.57
72921;BME280;61064;51.654;5.476;2023-02-27T03:33:32;102966.03;;;-0.66;70.32
72921;BME280;61064;51.654;5.476;2023-02-27T03:36:16;102964.88;;;-0.69;70.32
72921;BME280;61064;51.654;5.476;2023-02-27T03:41:28;102964.09;;;-0.68;70.67
72921;BME280;61064;51.654;5.476;2023-02-27T03:44:08;102970.88;;;-0.70;70.62
72921;BME280;61064;51.654;5.476;2023-02-27T03:46:36;102907.38;;;-1.00;70.63
72921;BME280;61064;51.654;5.476;2023-02-27T03:49:02;102970.63;;;-0.73;70.67
72921;BME280;61064;51.654;5.476;2023-02-27T03:51:28;102913.66;;;-1.08;70.68
72921;BME280;61064;51.654;5.476;2023-02-27T03:56:28;102933.50;;;-1.00;70.69
72921;BME280;61064;51.654;5.476;2023-02-27T03:58:56;102941.34;;;-1.00;70.74
72921;BME280;61064;51.654;5.476;2023-02-27T04:01:22;102964.59;;;-0.93;71.07
72921;BME280;61064;51.654;5.476;2023-02-27T04:03:53;102967.22;;;-0.93;70.80
72921;BME280;61064;51.654;5.476;2023-02-27T04:06:21;102963.16;;;-0.99;70.76
72921;BME280;61064;51.654;5.476;2023-02-27T04:09:13;102979.66;;;-0.90;70.98
72921;BME280;61064;51.654;5.476;2023-02-27T04:11:57;102975.59;;;-0.97;71.13
72921;BME280;61064;51.654;5.476;2023-02-27T04:17:49;102948.41;;;-1.09;71.14
72921;BME280;61064;51.654;5.476;2023-02-27T04:23:01;102987.06;;;-0.95;71.21
72921;BME280;61064;51.654;5.476;2023-02-27T04:33:22;103001.19;;;-0.93;71.28
72921;BME280;61064;51.654;5.476;2023-02-27T04:35:52;102979.22;;;-1.05;71.22
72921;BME280;61064;51.654;5.476;2023-02-27T04:38:27;102992.28;;;-0.95;71.47
72921;BME280;61064;51.654;5.476;2023-02-27T04:40:58;102962.22;;;-1.20;71.39
72921;BME280;61064;51.654;5.476;2023-02-27T04:43:28;102990.19;;;-0.99;71.41
72921;BME280;61064;51.654;5.476;2023-02-27T04:45:58;102946.78;;;-1.27;71.69
72921;BME280;61064;51.654;5.476;2023-02-27T04:48:40;102996.19;;;-1.00;71.48
72921;BME280;61064;51.654;5.476;2023-02-27T04:51:20;102941.31;;;-1.30;71.49
72921;BME280;61064;51.654;5.476;2023-02-27T04:53:53;102973.19;;;-1.14;71.54
72921;BME280;61064;51.654;5.476;2023-02-27T04:56:26;102940.91;;;-1.35;71.49
72921;BME280;61064;51.654;5.476;2023-02-27T04:59:02;102936.72;;;-1.33;71.65
72921;BME280;61064;51.654;5.476;2023-02-27T05:04:30;102990.41;;;-1.16;71.76
72921;BME280;61064;51.654;5.476;2023-02-27T05:06:59;103005.84;;;-1.09;71.82
72921;BME280;61064;51.654;5.476;2023-02-27T05:10:17;102995.25;;;-1.20;72.16
72921;BME280;61064;51.654;5.476;2023-02-27T05:15:27;102975.88;;;-1.33;72.11
72921;BME280;61064;51.654;5.476;2023-02-27T05:18:00;102951.81;;;-1.49;72.16
72921;BME280;61064;51.654;5.476;2023-02-27T05:23:34;103001.53;;;-1.18;72.30
72921;BME280;61064;51.654;5.476;2023-02-27T05:26:15;102953.41;;;-1.51;72.16
72921;BME280;61064;51.654;5.476;2023-02-27T05:29:05;103000.69;;;-1.28;72.17
72921;BME280;61064;51.654;5.476;2023-02-27T05:31:42;103002.69;;;-1.25;72.29
72921;BME280;61064;51.654;5.476;2023-02-27T05:34:15;103002.41;;;-1.28;72.30
72921;BME280;61064;51.654;5.476;2023-02-27T05:36:46;103018.59;;;-1.22;72.24
72921;BME280;61064;51.654;5.476;2023-02-27T05:39:13;103019.53;;;-1.21;72.45
72921;BME280;61064;51.654;5.476;2023-02-27T05:41:47;103024.75;;;-1.21;72.54
72921;BME280;61064;51.654;5.476;2023-02-27T05:44:18;103030.25;;;-1.18;72.53
72921;BME280;61064;51.654;5.476;2023-02-27T05:52:31;103036.13;;;-1.21;72.66
72921;BME280;61064;51.654;5.476;2023-02-27T05:55:03;103036.88;;;-1.22;72.45
72921;BME280;61064;51.654;5.476;2023-02-27T05:57:39;103028.78;;;-1.35;72.81
72921;BME280;61064;51.654;5.476;2023-02-27T06:00:37;103044.06;;;-1.30;72.72
72921;BME280;61064;51.654;5.476;2023-02-27T06:03:04;103025.88;;;-1.38;72.65
72921;BME280;61064;51.654;5.476;2023-02-27T06:05:30;103023.91;;;-1.41;72.95
72921;BME280;61064;51.654;5.476;2023-02-27T06:07:56;103042.84;;;-1.33;72.75
72921;BME280;61064;51.654;5.476;2023-02-27T06:10:21;103046.38;;;-1.33;72.77
72921;BME280;61064;51.654;5.476;2023-02-27T06:12:47;103047.97;;;-1.35;73.01
72921;BME280;61064;51.654;5.476;2023-02-27T06:15:13;103052.38;;;-1.34;73.00
72921;BME280;61064;51.654;5.476;2023-02-27T06:17:38;103057.59;;;-1.34;72.92
72921;BME280;61064;51.654;5.476;2023-02-27T06:20:08;103049.09;;;-1.41;73.04
72921;BME280;61064;51.654;5.476;2023-02-27T06:22:33;103040.88;;;-1.46;73.02
72921;BME280;61064;51.654;5.476;2023-02-27T06:24:59;102998.75;;;-1.69;73.05
72921;BME280;61064;51.654;5.476;2023-02-27T06:27:24;103003.81;;;-1.71;73.09
72921;BME280;61064;51.654;5.476;2023-02-27T06:29:51;103033.41;;;-1.51;73.00
72921;BME280;61064;51.654;5.476;2023-02-27T06:32:17;103067.00;;;-1.36;73.23
72921;BME280;61064;51.654;5.476;2023-02-27T06:34:43;103061.66;;;-1.37;73.18
72921;BME280;61064;51.654;5.476;2023-02-27T06:37:08;103073.53;;;-1.41;73.13
72921;BME280;61064;51.654;5.476;2023-02-27T06:39:33;103031.53;;;-1.62;73.20
72921;BME280;61064;51.654;5.476;2023-02-27T06:41:59;103073.22;;;-1.44;73.57
72921;BME280;61064;51.654;5.476;2023-02-27T06:44:24;103018.91;;;-1.77;73.31
72921;BME280;61064;51.654;5.476;2023-02-27T06:46:49;103072.31;;;-1.44;73.60
72921;BME280;61064;51.654;5.476;2023-02-27T06:49:15;103030.19;;;-1.67;73.43
72921;BME280;61064;51.654;5.476;2023-02-27T06:51:40;103072.47;;;-1.43;73.35
72921;BME280;61064;51.654;5.476;2023-02-27T06:54:06;103099.25;;;-1.35;73.67
72921;BME280;61064;51.654;5.476;2023-02-27T06:56:32;103088.94;;;-1.34;73.99
72921;BME280;61064;51.654;5.476;2023-02-27T06:58:57;103100.63;;;-1.20;73.29
72921;BME280;61064;51.654;5.476;2023-02-27T07:01:23;103106.81;;;-1.09;73.25
72921;BME280;61064;51.654;5.476;2023-02-27T07:03:50;103105.81;;;-1.01;73.12
72921;BME280;61064;51.654;5.476;2023-02-27T07:06:16;103076.59;;;-1.16;73.11
72921;BME280;61064;51.654;5.476;2023-02-27T07:08:41;103100.69;;;-1.00;72.90
72921;BME280;61064;51.654;5.476;2023-02-27T07:11:06;103110.28;;;-0.90;73.18
72921;BME280;61064;51.654;5.476;2023-02-27T07:13:32;103119.69;;;-0.82;73.09
72921;BME280;61064;51.654;5.476;2023-02-27T07:15:57;103115.41;;;-0.81;73.03
72921;BME280;61064;51.654;5.476;2023-02-27T07:18:23;103095.25;;;-0.93;73.44
72921;BME280;61064;51.654;5.476;2023-02-27T07:20:50;103116.09;;;-0.74;73.27
72921;BME280;61064;51.654;5.476;2023-02-27T07:23:16;103123.66;;;-0.67;73.14
72921;BME280;61064;51.654;5.476;2023-02-27T07:25:41;103100.50;;;-0.82;73.67
72921;BME280;61064;51.654;5.476;2023-02-27T07:28:07;103083.09;;;-0.92;73.35
72921;BME280;61064;51.654;5.476;2023-02-27T07:30:33;103124.19;;;-0.61;73.25
72921;BME280;61064;51.654;5.476;2023-02-27T07:32:58;103125.50;;;-0.66;73.39
72921;BME280;61064;51.654;5.476;2023-02-27T07:35:24;103108.50;;;-0.71;73.37
72921;BME280;61064;51.654;5.476;2023-02-27T07:37:49;103118.03;;;-0.61;73.67
72921;BME280;61064;51.654;5.476;2023-02-27T07:40:15;103080.78;;;-0.79;73.47
72921;BME280;61064;51.654;5.476;2023-02-27T07:42:40;103124.34;;;-0.49;73.42
72921;BME280;61064;51.654;5.476;2023-02-27T07:45:07;103118.50;;;-0.47;73.90
72921;BME280;61064;51.654;5.476;2023-02-27T07:47:34;103122.28;;;-0.43;73.92
72921;BME280;61064;51.654;5.476;2023-02-27T07:49:59;103098.09;;;-0.40;73.84
72921;BME280;61064;51.654;5.476;2023-02-27T07:52:24;103082.81;;;-0.36;73.79
72921;BME280;61064;51.654;5.476;2023-02-27T07:54:50;103115.91;;;-0.06;73.90
72921;BME280;61064;51.654;5.476;2023-02-27T07:57:15;103065.94;;;-0.19;73.72
72921;BME280;61064;51.654;5.476;2023-02-27T07:59:41;103082.91;;;0.06;73.73
72921;BME280;61064;51.654;5.476;2023-02-27T08:02:06;103081.72;;;0.13;73.82
72921;BME280;61064;51.654;5.476;2023-02-27T08:04:32;103098.03;;;0.40;73.44
72921;BME280;61064;51.654;5.476;2023-02-27T08:06:57;103074.75;;;0.33;73.38
72921;BME280;61064;51.654;5.476;2023-02-27T08:09:22;103112.75;;;0.70;73.30
72921;BME280;61064;51.654;5.476;2023-02-27T08:11:48;103089.97;;;0.69;73.42
72921;BME280;61064;51.654;5.476;2023-02-27T08:14:13;103103.66;;;0.87;73.33
72921;BME280;61064;51.654;5.476;2023-02-27T08:16:39;103116.41;;;1.04;73.50
72921;BME280;61064;51.654;5.476;2023-02-27T08:19:04;103109.69;;;1.08;73.18
72921;BME280;61064;51.654;5.476;2023-02-27T08:21:30;103103.91;;;1.12;73.38
72921;BME280;61064;51.654;5.476;2023-02-27T08:23:55;103125.44;;;1.30;73.03
72921;BME280;61064;51.654;5.476;2023-02-27T08:26:21;103081.66;;;1.07;72.89
72921;BME280;61064;51.654;5.476;2023-02-27T08:28:47;103116.13;;;1.33;72.81
72921;BME280;61064;51.654;5.476;2023-02-27T08:31:12;103136.13;;;1.43;72.73
72921;BME280;61064;51.654;5.476;2023-02-27T08:33:38;103081.22;;;1.12;72.84
72921;BME280;61064;51.654;5.476;2023-02-27T08:36:03;103123.19;;;1.34;72.93
72921;BME280;61064;51.654;5.476;2023-02-27T08:38:29;103148.81;;;1.48;72.97
72921;BME280;61064;51.654;5.476;2023-02-27T08:40:54;103134.00;;;1.49;73.29
72921;BME280;61064;51.654;5.476;2023-02-27T08:43:20;103090.94;;;1.35;72.91
72921;BME280;61064;51.654;5.476;2023-02-27T08:45:49;103157.91;;;1.63;73.17
72921;BME280;61064;51.654;5.476;2023-02-27T08:48:15;103096.78;;;1.43;73.34
72921;BME280;61064;51.654;5.476;2023-02-27T08:50:42;103139.84;;;1.78;72.90
72921;BME280;61064;51.654;5.476;2023-02-27T08:53:07;103151.63;;;1.83;73.11
72921;BME280;61064;51.654;5.476;2023-02-27T08:55:33;103122.13;;;1.76;72.74
72921;BME280;61064;51.654;5.476;2023-02-27T08:57:59;103099.53;;;1.66;72.93
72921;BME280;61064;51.654;5.476;2023-02-27T09:00:24;103109.13;;;1.77;72.61
72921;BME280;61064;51.654;5.476;2023-02-27T09:02:51;103140.72;;;2.00;72.53
72921;BME280;61064;51.654;5.476;2023-02-27T09:05:16;103109.28;;;1.90;72.53
72921;BME280;61064;51.654;5.476;2023-02-27T09:07:42;103105.19;;;1.94;72.62
72921;BME280;61064;51.654;5.476;2023-02-27T09:10:08;103140.41;;;2.19;72.49
72921;BME280;61064;51.654;5.476;2023-02-27T09:12:33;103148.56;;;2.34;72.05
72921;BME280;61064;51.654;5.476;2023-02-27T09:14:59;103149.59;;;2.47;71.98
72921;BME280;61064;51.654;5.476;2023-02-27T09:17:25;103105.63;;;2.33;71.70
72921;BME280;61064;51.654;5.476;2023-02-27T09:19:50;103136.34;;;2.58;71.59
72921;BME280;61064;51.654;5.476;2023-02-27T09:22:17;103150.66;;;2.73;71.62
72921;BME280;61064;51.654;5.476;2023-02-27T09:24:42;103128.59;;;2.71;71.33
72921;BME280;61064;51.654;5.476;2023-02-27T09:27:07;103129.25;;;2.80;71.21
72921;BME280;61064;51.654;5.476;2023-02-27T09:29:33;103152.00;;;3.03;71.46
72921;BME280;61064;51.654;5.476;2023-02-27T09:31:58;103156.00;;;3.09;71.24
72921;BME280;61064;51.654;5.476;2023-02-27T09:34:24;103122.06;;;3.01;71.02
72921;BME280;61064;51.654;5.476;2023-02-27T09:36:49;103146.34;;;3.33;71.21
72921;BME280;61064;51.654;5.476;2023-02-27T09:39:16;103154.53;;;3.49;70.72
72921;BME280;61064;51.654;5.476;2023-02-27T09:42:12;103152.41;;;3.68;70.54
72921;BME280;61064;51.654;5.476;2023-02-27T09:44:51;103148.59;;;3.76;70.40
72921;BME280;61064;51.654;5.476;2023-02-27T09:52:20;103105.81;;;3.92;70.02
72921;BME280;61064;51.654;5.476;2023-02-27T09:54:47;103116.41;;;4.18;70.08
72921;BME280;61064;51.654;5.476;2023-02-27T09:57:53;103147.00;;;4.54;69.66
72921;BME280;61064;51.654;5.476;2023-02-27T10:00:36;103144.47;;;4.69;69.73
72921;BME280;61064;51.654;5.476;2023-02-27T10:03:32;103140.03;;;4.81;69.56
72921;BME280;61064;51.654;5.476;2023-02-27T10:06:20;103143.88;;;4.99;69.36
72921;BME280;61064;51.654;5.476;2023-02-27T10:11:33;103138.16;;;5.20;68.90
72921;BME280;61064;51.654;5.476;2023-02-27T10:14:15;103153.78;;;5.30;68.70
72921;BME280;61064;51.654;5.476;2023-02-27T10:16:47;103137.53;;;5.37;68.69
72921;BME280;61064;51.654;5.476;2023-02-27T10:19:21;103142.69;;;5.49;68.38
72921;BME280;61064;51.654;5.476;2023-02-27T10:21:52;103103.06;;;5.49;68.29
72921;BME280;61064;51.654;5.476;2023-02-27T10:24:32;103141.25;;;5.81;67.84
72921;BME280;61064;51.654;5.476;2023-02-27T10:27:02;103105.59;;;5.75;67.62
72921;BME280;61064;51.654;5.476;2023-02-27T10:29:35;103140.59;;;5.99;67.31
72921;BME280;61064;51.654;5.476;2023-02-27T10:32:02;103139.34;;;6.07;67.25
72921;BME280;61064;51.654;5.476;2023-02-27T10:34:31;103147.13;;;6.18;67.04
72921;BME280;61064;51.654;5.476;2023-02-27T10:37:03;103136.16;;;6.27;66.35
72921;BME280;61064;51.654;5.476;2023-02-27T10:39:42;103099.97;;;6.11;66.16
72921;BME280;61064;51.654;5.476;2023-02-27T10:42:11;103094.06;;;6.15;65.53
72921;BME280;61064;51.654;5.476;2023-02-27T10:44:38;103118.94;;;6.34;66.23
72921;BME280;61064;51.654;5.476;2023-02-27T10:47:04;103099.69;;;6.36;65.64
72921;BME280;61064;51.654;5.476;2023-02-27T10:49:31;103092.69;;;6.51;65.25
72921;BME280;61064;51.654;5.476;2023-02-27T10:52:13;103129.97;;;6.71;65.09
72921;BME280;61064;51.654;5.476;2023-02-27T10:54:40;103097.28;;;6.70;65.23
72921;BME280;61064;51.654;5.476;2023-02-27T10:57:24;103076.53;;;6.61;64.99
72921;BME280;61064;51.654;5.476;2023-02-27T10:59:53;103109.22;;;6.93;64.54
72921;BME280;61064;51.654;5.476;2023-02-27T11:02:38;103107.44;;;7.08;64.25
72921;BME280;61064;51.654;5.476;2023-02-27T11:07:43;103105.31;;;7.17;63.92
72921;BME280;61064;51.654;5.476;2023-02-27T11:10:27;103090.25;;;7.16;63.44
72921;BME280;61064;51.654;5.476;2023-02-27T11:13:01;103092.44;;;7.23;63.52
72921;BME280;61064;51.654;5.476;2023-02-27T11:15:38;103075.63;;;7.23;63.33
72921;BME280;61064;51.654;5.476;2023-02-27T11:18:28;103092.19;;;7.35;62.68
72921;BME280;61064;51.654;5.476;2023-02-27T11:23:56;103038.22;;;7.17;62.58
72921;BME280;61064;51.654;5.476;2023-02-27T11:26:27;103073.50;;;7.48;62.66
72921;BME280;61064;51.654;5.476;2023-02-27T11:29:14;103077.72;;;7.44;62.02
72921;BME280;61064;51.654;5.476;2023-02-27T11:31:53;103083.16;;;7.47;62.11
72921;BME280;61064;51.654;5.476;2023-02-27T11:34:26;103071.16;;;7.38;62.02
72921;BME280;61064;51.654;5.476;2023-02-27T11:36:55;103071.59;;;7.29;61.66
72921;BME280;61064;51.654;5.476;2023-02-27T11:39:35;103065.50;;;7.16;61.70
72921;BME280;61064;51.654;5.476;2023-02-27T11:42:11;103015.75;;;6.78;61.84
72921;BME280;61064;51.654;5.476;2023-02-27T11:44:50;103060.31;;;6.86;61.41
72921;BME280;61064;51.654;5.476;2023-02-27T11:47:31;103051.72;;;6.59;61.84
72921;BME280;61064;51.654;5.476;2023-02-27T11:50:19;103047.00;;;6.39;61.63
72921;BME280;61064;51.654;5.476;2023-02-27T11:55:26;103053.84;;;6.36;62.08
72921;BME280;61064;51.654;5.476;2023-02-27T11:58:11;103036.25;;;6.51;61.60
72921;BME280;61064;51.654;5.476;2023-02-27T12:00:50;103039.91;;;6.84;60.73
72921;BME280;61064;51.654;5.476;2023-02-27T12:03:45;103000.25;;;6.69;60.16
72921;BME280;61064;51.654;5.476;2023-02-27T12:06:16;103014.13;;;6.96;59.42
72921;BME280;61064;51.654;5.476;2023-02-27T12:08:53;103015.88;;;7.12;59.35
72921;BME280;61064;51.654;5.476;2023-02-27T12:11:46;103029.47;;;7.34;59.04
72921;BME280;61064;51.654;5.476;2023-02-27T12:14:34;103061.63;;;7.41;59.00
72921;BME280;61064;51.654;5.476;2023-02-27T12:17:11;103023.66;;;7.25;59.49
72921;BME280;61064;51.654;5.476;2023-02-27T12:19:43;103050.16;;;7.57;59.38
72921;BME280;61064;51.654;5.476;2023-02-27T12:22:19;103055.94;;;7.66;59.12
72921;BME280;61064;51.654;5.476;2023-02-27T12:24:51;103006.31;;;7.46;58.94
72921;BME280;61064;51.654;5.476;2023-02-27T12:30:04;103029.00;;;7.91;59.17
72921;BME280;61064;51.654;5.476;2023-02-27T12:32:42;102989.25;;;7.75;58.19
72921;BME280;61064;51.654;5.476;2023-02-27T12:35:21;103026.19;;;7.88;58.32
72921;BME280;61064;51.654;5.476;2023-02-27T12:37:47;102965.88;;;7.66;58.59
72921;BME280;61064;51.654;5.476;2023-02-27T12:40:15;103027.75;;;8.01;58.11
72921;BME280;61064;51.654;5.476;2023-02-27T12:43:02;103028.34;;;7.95;57.52
72921;BME280;61064;51.654;5.476;2023-02-27T12:45:57;103027.75;;;8.01;58.04
72921;BME280;61064;51.654;5.476;2023-02-27T12:48:50;103027.50;;;8.14;58.25
72921;BME280;61064;51.654;5.476;2023-02-27T12:51:28;103033.53;;;8.27;57.82
72921;BME280;61064;51.654;5.476;2023-02-27T12:56:41;103037.69;;;8.22;57.52
72921;BME280;61064;51.654;5.476;2023-02-27T13:04:46;103007.44;;;8.01;56.81
72921;BME280;61064;51.654;5.476;2023-02-27T13:07:36;103014.72;;;8.05;57.24
72921;BME280;61064;51.654;5.476;2023-02-27T13:10:11;103025.41;;;8.07;57.13
72921;BME280;61064;51.654;5.476;2023-02-27T13:12:45;102990.44;;;7.80;57.18
72921;BME280;61064;51.654;5.476;2023-02-27T13:15:32;103026.41;;;7.92;57.30
72921;BME280;61064;51.654;5.476;2023-02-27T13:18:25;103022.25;;;7.80;57.25
72921;BME280;61064;51.654;5.476;2023-02-27T13:21:04;103018.28;;;7.72;57.62
72921;BME280;61064;51.654;5.476;2023-02-27T13:26:27;103027.88;;;7.53;57.62
72921;BME280;61064;51.654;5.476;2023-02-27T13:28:55;103002.16;;;7.35;57.67
72921;BME280;61064;51.654;5.476;2023-02-27T13:34:21;103025.25;;;7.37;57.61
72921;BME280;61064;51.654;5.476;2023-02-27T13:37:00;102996.19;;;7.23;57.24
72921;BME280;61064;51.654;5.476;2023-02-27T13:42:01;102975.94;;;7.07;57.53
72921;BME280;61064;51.654;5.476;2023-02-27T13:44:39;103012.00;;;7.21;57.10
72921;BME280;61064;51.654;5.476;2023-02-27T13:50:02;102992.66;;;7.22;57.17
72921;BME280;61064;51.654;5.476;2023-02-27T13:52:30;102998.09;;;7.25;57.00
72921;BME280;61064;51.654;5.476;2023-02-27T13:54:56;103005.53;;;7.32;57.03
72921;BME280;61064;51.654;5.476;2023-02-27T13:57:24;102965.25;;;7.05;56.69
72921;BME280;61064;51.654;5.476;2023-02-27T14:00:17;102955.91;;;6.96;55.73
72921;BME280;61064;51.654;5.476;2023-02-27T14:03:03;102956.41;;;6.89;56.63
72921;BME280;61064;51.654;5.476;2023-02-27T14:05:42;102963.75;;;6.94;56.58
72921;BME280;61064;51.654;5.476;2023-02-27T14:10:38;102998.41;;;7.15;56.45
72921;BME280;61064;51.654;5.476;2023-02-27T14:16:08;102997.69;;;7.18;56.37
72921;BME280;61064;51.654;5.476;2023-02-27T14:18:56;102961.13;;;6.94;56.13
72921;BME280;61064;51.654;5.476;2023-02-27T14:24:58;103010.69;;;7.13;56.38
72921;BME280;61064;51.654;5.476;2023-02-27T14:27:53;102967.66;;;6.85;55.91
72921;BME280;61064;51.654;5.476;2023-02-27T14:30:30;102970.84;;;6.79;56.05
72921;BME280;61064;51.654;5.476;2023-02-27T14:32:59;102972.59;;;6.79;56.34
72921;BME280;61064;51.654;5.476;2023-02-27T14:35:26;103006.19;;;6.96;56.23
72921;BME280;61064;51.654;5.476;2023-02-27T14:37:53;103006.56;;;6.87;56.22
72921;BME280;61064;51.654;5.476;2023-02-27T14:40:26;102988.88;;;6.86;56.38
72921;BME280;61064;51.654;5.476;2023-02-27T14:43:36;102963.66;;;6.77;56.42
72921;BME280;61064;51.654;5.476;2023-02-27T14:46:36;102982.66;;;6.86;56.60
72921;BME280;61064;51.654;5.476;2023-02-27T14:49:06;102954.88;;;6.78;56.23
72921;BME280;61064;51.654;5.476;2023-02-27T14:51:34;102948.19;;;6.68;56.06
72921;BME280;61064;51.654;5.476;2023-02-27T14:54:19;102936.94;;;6.72;56.15
72921;BME280;61064;51.654;5.476;2023-02-27T14:59:26;102985.28;;;7.17;56.31
72921;BME280;61064;51.654;5.476;2023-02-27T15:01:54;102984.69;;;7.22;56.45
72921;BME280;61064;51.654;5.476;2023-02-27T15:04:22;102985.03;;;7.28;56.09
72921;BME280;61064;51.654;5.476;2023-02-27T15:06:51;102960.53;;;7.16;56.08
72921;BME280;61064;51.654;5.476;2023-02-27T15:09:32;102982.78;;;7.20;55.91
72921;BME280;61064;51.654;5.476;2023-02-27T15:11:59;102968.16;;;7.10;56.09